createdAt,value
2023-02-14T00:01:55.772Z,10.25
2023-02-14T00:04:22.508Z,10.34
2023-02-14T00:06:49.255Z,10.01
2023-02-14T00:09:17.023Z,10.50
2023-02-14T00:11:43.815Z,10.78
2023-02-14T00:14:29.122Z,9.94
2023-02-14T00:16:55.765Z,10.20
2023-02-14T00:19:22.940Z,10.05
2023-02-14T00:21:49.672Z,10.39
2023-02-14T00:24:26.181Z,10.66
2023-02-14T00:26:53.274Z,11.04
2023-02-14T00:29:24.759Z,10.66
2023-02-14T00:31:51.673Z,10.41
2023-02-14T00:34:18.653Z,10.20
2023-02-14T00:36:45.432Z,10.22
2023-02-14T00:39:13.257Z,9.51
2023-02-14T00:41:40.312Z,9.42
2023-02-14T00:44:07.289Z,9.93
2023-02-14T00:46:34.071Z,9.80
2023-02-14T00:49:00.755Z,10.09
2023-02-14T00:51:27.688Z,10.31
2023-02-14T00:53:54.404Z,9.96
2023-02-14T00:56:21.191Z,9.27
2023-02-14T00:58:47.881Z,9.95
2023-02-14T01:01:15.099Z,8.95
2023-02-14T01:03:41.791Z,9.84
2023-02-14T01:06:08.554Z,9.61
2023-02-14T01:08:35.407Z,8.55
2023-02-14T01:11:12.875Z,8.82
2023-02-14T01:13:39.753Z,9.35
2023-02-14T01:16:07.891Z,10.00
2023-02-14T01:18:34.874Z,9.35
2023-02-14T01:21:30.709Z,10.01
2023-02-14T01:23:58.628Z,10.58
2023-02-14T01:26:25.440Z,9.74
2023-02-14T01:28:52.161Z,10.06
2023-02-14T01:31:26.151Z,10.34
2023-02-14T01:33:53.413Z,9.53
2023-02-14T01:36:21.419Z,9.50
2023-02-14T01:38:48.383Z,9.31
2023-02-14T01:41:15.090Z,9.04
2023-02-14T01:43:50.624Z,8.97
2023-02-14T01:46:17.325Z,8.79
2023-02-14T01:48:44.012Z,9.49
2023-02-14T01:51:10.760Z,9.97
2023-02-14T01:53:37.500Z,9.45
2023-02-14T01:56:05.853Z,9.48
2023-02-14T01:58:35.136Z,9.64
2023-02-14T02:01:02.746Z,9.32
2023-02-14T02:03:34.752Z,8.48
2023-02-14T02:06:24.771Z,8.95
2023-02-14T02:09:10.383Z,9.31
2023-02-14T02:11:38.016Z,9.62
2023-02-14T02:14:05.145Z,9.07
2023-02-14T02:16:40.663Z,9.18
2023-02-14T02:19:16.491Z,8.95
2023-02-14T02:21:58.445Z,8.82
2023-02-14T02:24:31.021Z,9.39
2023-02-14T02:27:02.513Z,9.77
2023-02-14T02:29:38.408Z,9.42
2023-02-14T02:32:19.443Z,9.34
2023-02-14T02:34:58.266Z,8.63
2023-02-14T02:37:24.932Z,8.70
2023-02-14T02:40:11.160Z,8.37
2023-02-14T02:42:40.814Z,8.88
2023-02-14T02:45:20.977Z,8.89
2023-02-14T02:47:54.463Z,8.62
2023-02-14T02:50:45.900Z,8.35
2023-02-14T02:53:24.279Z,8.42
2023-02-14T02:56:09.411Z,7.89
2023-02-14T02:58:46.082Z,8.66
2023-02-14T03:01:13.976Z,8.41
2023-02-14T03:03:59.440Z,8.66
2023-02-14T03:06:26.137Z,8.17
2023-02-14T03:08:52.837Z,8.10
2023-02-14T03:11:19.529Z,8.21
2023-02-14T03:13:58.430Z,8.46
2023-02-14T03:16:27.153Z,7.77
2023-02-14T03:19:16.686Z,8.67
2023-02-14T03:21:55.350Z,8.39
2023-02-14T03:24:51.347Z,8.36
2023-02-14T03:27:36.899Z,7.69
2023-02-14T03:30:09.387Z,8.74
2023-02-14T03:32:40.095Z,8.79
2023-02-14T03:35:11.903Z,8.79
2023-02-14T03:38:00.176Z,8.51
2023-02-14T03:40:43.355Z,8.45
2023-02-14T03:43:14.676Z,8.52
2023-02-14T03:45:52.520Z,9.02
2023-02-14T03:48:19.289Z,8.51
2023-02-14T03:50:46.731Z,8.54
2023-02-14T03:53:13.391Z,8.11
2023-02-14T03:55:45.050Z,8.46
2023-02-14T03:58:14.834Z,8.44
2023-02-14T04:00:41.570Z,8.68
2023-02-14T04:03:12.116Z,8.13
2023-02-14T04:05:42.323Z,8.39
2023-02-14T04:08:09.003Z,8.86
2023-02-14T04:10:35.703Z,8.35
2023-02-14T04:13:02.408Z,8.55
2023-02-14T04:15:29.311Z,8.61
2023-02-14T04:18:14.320Z,8.81
2023-02-14T04:20:40.985Z,8.94
2023-02-14T04:23:07.666Z,8.68
2023-02-14T04:25:34.381Z,8.47
2023-02-14T04:28:01.086Z,8.89
2023-02-14T04:30:27.909Z,8.47
2023-02-14T04:32:54.602Z,8.58
2023-02-14T04:35:21.285Z,9.06
2023-02-14T04:37:47.979Z,9.18
2023-02-14T04:40:17.395Z,9.14
2023-02-14T04:42:47.399Z,8.79
2023-02-14T04:45:14.391Z,8.97
2023-02-14T04:47:41.255Z,8.91
2023-02-14T04:50:08.089Z,8.83
2023-02-14T04:52:34.775Z,8.99
2023-02-14T04:55:01.611Z,9.08
2023-02-14T04:57:28.329Z,9.17
2023-02-14T04:59:55.035Z,9.29
2023-02-14T05:02:21.747Z,8.66
2023-02-14T05:04:49.795Z,9.43
2023-02-14T05:07:16.616Z,8.04
2023-02-14T05:09:43.435Z,8.73
2023-02-14T05:12:10.244Z,9.22
2023-02-14T05:14:36.954Z,8.77
2023-02-14T05:17:03.713Z,9.21
2023-02-14T05:19:30.385Z,8.79
2023-02-14T05:21:57.112Z,8.74
2023-02-14T05:24:23.745Z,8.22
2023-02-14T05:26:50.391Z,7.90
2023-02-14T05:29:17.117Z,8.20
2023-02-14T05:31:43.877Z,8.86
2023-02-14T05:34:10.603Z,9.16
2023-02-14T05:36:37.295Z,8.64
2023-02-14T05:39:04.168Z,7.70
2023-02-14T05:41:31.285Z,7.68
2023-02-14T05:43:57.982Z,8.15
2023-02-14T05:46:24.652Z,8.40
2023-02-14T05:48:51.324Z,8.99
2023-02-14T05:51:17.970Z,7.96
2023-02-14T05:53:44.676Z,7.97
2023-02-14T05:56:11.329Z,8.34
2023-02-14T05:58:38.024Z,8.91
2023-02-14T06:01:04.808Z,8.46
2023-02-14T06:03:31.523Z,8.39
2023-02-14T06:05:58.225Z,8.27
2023-02-14T06:08:24.937Z,7.42
2023-02-14T06:10:51.573Z,8.21
2023-02-14T06:13:18.369Z,8.47
2023-02-14T06:15:45.073Z,9.92
2023-02-14T06:18:11.777Z,9.02
2023-02-14T06:20:38.482Z,8.09
2023-02-14T06:23:05.187Z,8.93
2023-02-14T06:25:31.857Z,8.65
2023-02-14T06:27:59.263Z,8.33
2023-02-14T06:30:26.180Z,9.00
2023-02-14T06:32:53.022Z,8.47
2023-02-14T06:35:19.702Z,8.77
2023-02-14T06:37:46.426Z,9.05
2023-02-14T06:40:13.512Z,8.50
2023-02-14T06:42:40.291Z,8.84
2023-02-14T06:45:07.133Z,9.30
2023-02-14T06:47:35.144Z,8.49
2023-02-14T06:50:02.265Z,9.04
2023-02-14T06:52:28.942Z,9.46
2023-02-14T06:54:58.770Z,8.99
2023-02-14T06:57:26.591Z,8.68
2023-02-14T06:59:53.355Z,9.10
2023-02-14T07:02:21.250Z,9.24
2023-02-14T07:04:49.062Z,8.73
2023-02-14T07:07:17.412Z,9.17
2023-02-14T07:09:44.205Z,8.55
2023-02-14T07:12:10.893Z,9.36
2023-02-14T07:14:37.552Z,9.18
2023-02-14T07:17:04.192Z,8.21
2023-02-14T07:19:30.892Z,8.68
2023-02-14T07:21:57.597Z,8.51
2023-02-14T07:24:24.447Z,8.50
2023-02-14T07:26:51.126Z,8.43
2023-02-14T07:29:17.809Z,8.36
2023-02-14T07:31:44.524Z,8.44
2023-02-14T07:34:11.687Z,9.01
2023-02-14T07:36:39.090Z,8.47
2023-02-14T07:39:05.963Z,9.18
2023-02-14T07:41:32.663Z,8.33
2023-02-14T07:43:59.460Z,9.10
2023-02-14T07:46:26.212Z,9.44
2023-02-14T07:48:52.964Z,9.48
2023-02-14T07:51:19.909Z,8.70
2023-02-14T07:53:47.545Z,8.57
2023-02-14T07:56:14.303Z,8.53
2023-02-14T07:58:41.009Z,8.49
2023-02-14T08:01:07.682Z,9.13
2023-02-14T08:03:34.497Z,8.97
2023-02-14T08:06:01.372Z,8.70
2023-02-14T08:08:30.608Z,8.45
2023-02-14T08:10:57.393Z,9.47
2023-02-14T08:13:24.299Z,9.80
2023-02-14T08:16:06.459Z,9.64
2023-02-14T08:18:36.114Z,9.62
2023-02-14T08:21:02.996Z,8.43
2023-02-14T08:23:29.861Z,9.71
2023-02-14T08:25:56.597Z,9.90
2023-02-14T08:28:23.520Z,9.66
2023-02-14T08:30:50.429Z,9.37
2023-02-14T08:33:17.173Z,9.72
2023-02-14T08:35:43.865Z,10.49
2023-02-14T08:38:10.774Z,9.89
2023-02-14T08:40:47.122Z,10.23
2023-02-14T08:43:13.972Z,10.29
2023-02-14T08:45:40.685Z,10.27
2023-02-14T08:48:11.281Z,10.30
2023-02-14T08:50:38.387Z,9.59
2023-02-14T08:53:08.860Z,9.90
2023-02-14T08:55:36.006Z,9.78
2023-02-14T08:58:03.785Z,9.41
2023-02-14T09:00:30.832Z,11.10
2023-02-14T09:02:57.566Z,9.50
2023-02-14T09:05:24.219Z,9.63
2023-02-14T09:07:51.071Z,9.84
2023-02-14T09:10:18.846Z,10.86
2023-02-14T09:12:45.519Z,11.09
2023-02-14T09:15:12.488Z,10.36
2023-02-14T09:17:39.367Z,9.37
2023-02-14T09:20:07.000Z,10.07
2023-02-14T09:22:34.180Z,9.31
2023-02-14T09:25:01.200Z,9.75
2023-02-14T09:27:27.865Z,9.23
2023-02-14T09:29:54.620Z,9.39
2023-02-14T09:32:21.424Z,8.73
2023-02-14T09:35:06.899Z,8.56
2023-02-14T09:37:33.598Z,8.85
2023-02-14T09:40:00.291Z,8.85
2023-02-14T09:42:34.644Z,8.90
2023-02-14T09:45:01.297Z,8.99
2023-02-14T09:47:37.023Z,8.43
2023-02-14T09:50:06.171Z,8.24
2023-02-14T09:52:32.998Z,7.72
2023-02-14T09:55:01.343Z,7.26
2023-02-14T09:57:32.109Z,7.75
2023-02-14T10:00:19.273Z,7.59
2023-02-14T10:02:59.997Z,7.88
2023-02-14T10:05:26.719Z,7.09
2023-02-14T10:07:58.065Z,7.57
2023-02-14T10:10:33.968Z,7.81
2023-02-14T10:13:16.012Z,8.61
2023-02-14T10:15:46.700Z,8.74
2023-02-14T10:18:18.803Z,8.54
2023-02-14T10:20:46.580Z,8.69
2023-02-14T10:23:32.105Z,8.20
2023-02-14T10:26:05.896Z,8.20
2023-02-14T10:28:33.915Z,7.50
2023-02-14T10:31:03.821Z,8.36
2023-02-14T10:33:31.015Z,8.96
2023-02-14T10:36:01.012Z,8.47
2023-02-14T10:38:27.743Z,7.77
2023-02-14T10:41:04.196Z,8.19
2023-02-14T10:43:30.833Z,7.96
2023-02-14T10:46:07.085Z,8.27
2023-02-14T10:49:20.437Z,8.02
2023-02-14T10:51:20.960Z,8.67
2023-02-14T10:54:02.624Z,7.82
2023-02-14T10:56:37.264Z,8.93
2023-02-14T10:59:12.799Z,8.83
2023-02-14T11:01:39.657Z,9.06
2023-02-14T11:04:08.837Z,8.65
2023-02-14T11:06:38.167Z,9.08
2023-02-14T11:09:05.048Z,9.35
2023-02-14T11:11:33.309Z,9.60
2023-02-14T11:14:03.177Z,9.27
2023-02-14T11:16:36.000Z,9.34
2023-02-14T11:19:15.087Z,9.36
2023-02-14T11:21:44.391Z,9.29
2023-02-14T11:24:26.460Z,9.06
2023-02-14T11:26:55.830Z,8.58
2023-02-14T11:29:54.245Z,8.61
2023-02-14T11:32:31.498Z,8.66
2023-02-14T11:35:02.377Z,8.74
2023-02-14T11:37:34.137Z,8.33
2023-02-14T11:40:04.309Z,8.47
2023-02-14T11:42:44.286Z,7.96
2023-02-14T11:46:06.764Z,8.12
2023-02-14T11:48:42.097Z,8.37
2023-02-14T11:51:15.182Z,8.21
2023-02-14T11:53:56.845Z,8.30
2023-02-14T11:56:43.196Z,8.89
2023-02-14T11:59:12.158Z,8.35
2023-02-14T12:01:38.973Z,9.12
2023-02-14T12:04:15.489Z,8.99
2023-02-14T12:06:48.281Z,9.23
2023-02-14T12:09:34.116Z,9.68
2023-02-14T12:12:11.877Z,9.69
2023-02-14T12:14:40.124Z,9.51
2023-02-14T12:17:26.059Z,9.09
2023-02-14T12:20:05.295Z,9.33
2023-02-14T12:22:34.004Z,9.61
2023-02-14T12:25:07.649Z,9.22
2023-02-14T12:27:41.286Z,9.78
2023-02-14T12:30:37.363Z,9.53
2023-02-14T12:33:10.029Z,7.94
2023-02-14T12:35:36.825Z,7.85
2023-02-14T12:38:09.725Z,8.13
2023-02-14T12:40:46.507Z,8.91
2023-02-14T12:43:32.089Z,8.25
2023-02-14T12:46:08.784Z,8.02
2023-02-14T12:48:38.479Z,8.07
2023-02-14T12:51:11.122Z,7.99
2023-02-14T12:53:56.417Z,7.81
2023-02-14T12:57:40.744Z,8.26
2023-02-14T13:00:14.810Z,8.26
2023-02-14T13:02:56.685Z,7.39
2023-02-14T13:05:54.954Z,7.94
2023-02-14T13:08:24.921Z,7.87
2023-02-14T13:11:01.172Z,7.90
2023-02-14T13:13:40.452Z,7.56
2023-02-14T13:16:27.685Z,7.10
2023-02-14T13:19:13.917Z,6.93
2023-02-14T13:21:41.435Z,7.07
2023-02-14T13:24:22.292Z,6.89
2023-02-14T13:26:54.794Z,7.39
2023-02-14T13:29:24.482Z,7.28
2023-02-14T13:31:54.691Z,7.34
2023-02-14T13:34:32.820Z,6.94
2023-02-14T13:37:01.425Z,6.92
2023-02-14T13:39:43.596Z,7.09
2023-02-14T13:42:11.291Z,7.30
2023-02-14T13:44:46.653Z,7.14
2023-02-14T13:47:17.855Z,6.60
2023-02-14T13:50:01.318Z,6.56
2023-02-14T13:52:46.666Z,6.61
2023-02-14T13:55:23.109Z,6.36
2023-02-14T13:58:13.014Z,6.38
2023-02-14T14:00:47.174Z,6.54
2023-02-14T14:03:28.088Z,6.48
2023-02-14T14:06:09.162Z,6.36
2023-02-14T14:08:43.151Z,6.46
2023-02-14T14:11:22.313Z,6.26
2023-02-14T14:14:02.137Z,6.00
2023-02-14T14:16:30.751Z,5.95
2023-02-14T14:19:09.571Z,6.26
2023-02-14T14:22:04.425Z,6.33
2023-02-14T14:24:39.620Z,6.11
2023-02-14T14:27:25.581Z,6.13
2023-02-14T14:30:04.126Z,5.89
2023-02-14T14:32:37.006Z,5.81
2023-02-14T14:35:23.023Z,5.75
2023-02-14T14:37:53.134Z,6.11
2023-02-14T14:40:26.328Z,6.04
2023-02-14T14:42:53.669Z,5.95
2023-02-14T14:45:26.118Z,5.88
2023-02-14T14:47:55.610Z,6.10
2023-02-14T14:50:24.956Z,5.64
2023-02-14T14:53:14.677Z,5.49
2023-02-14T14:55:44.538Z,5.89
2023-02-14T14:58:32.744Z,5.60
2023-02-14T15:00:59.949Z,5.36
2023-02-14T15:03:29.427Z,5.14
2023-02-14T15:06:22.209Z,5.15
2023-02-14T15:08:52.135Z,5.08
2023-02-14T15:11:42.240Z,5.16
2023-02-14T15:14:15.647Z,5.32
2023-02-14T15:16:50.906Z,5.11
2023-02-14T15:19:34.405Z,5.02
2023-02-14T15:22:02.778Z,4.98
2023-02-14T15:24:31.696Z,4.88
2023-02-14T15:26:58.588Z,4.96
2023-02-14T15:29:28.786Z,5.02
2023-02-14T15:31:58.130Z,5.08
2023-02-14T15:34:29.025Z,5.04
2023-02-14T15:36:59.420Z,4.75
2023-02-14T15:39:33.056Z,4.85
2023-02-14T15:42:00.010Z,5.25
2023-02-14T15:44:27.120Z,4.88
2023-02-14T15:47:05.866Z,4.78
2023-02-14T15:49:37.436Z,4.68
2023-02-14T15:52:06.081Z,5.11
2023-02-14T15:54:38.913Z,4.88
2023-02-14T15:57:08.386Z,4.87
2023-02-14T15:59:36.613Z,5.14
2023-02-14T16:02:29.338Z,5.45
2023-02-14T16:05:03.934Z,5.16
2023-02-14T16:07:30.992Z,4.86
2023-02-14T16:10:22.560Z,5.09
2023-02-14T16:13:01.168Z,5.25
2023-02-14T16:15:32.003Z,5.17
2023-02-14T16:17:59.925Z,4.85
2023-02-14T16:20:26.839Z,5.22
2023-02-14T16:22:54.526Z,5.13
2023-02-14T16:25:21.854Z,4.96
2023-02-14T16:27:48.742Z,5.15
2023-02-14T16:30:17.790Z,5.13
2023-02-14T16:32:50.319Z,5.38
2023-02-14T16:35:20.432Z,5.49
2023-02-14T16:37:47.944Z,5.50
2023-02-14T16:40:16.078Z,5.25
2023-02-14T16:42:43.658Z,5.21
2023-02-14T16:45:19.831Z,5.68
2023-02-14T16:47:47.561Z,5.93
2023-02-14T16:50:15.159Z,5.05
2023-02-14T16:52:43.290Z,4.89
2023-02-14T16:55:17.895Z,5.37
2023-02-14T16:57:46.725Z,5.05
2023-02-14T17:00:14.298Z,4.81
2023-02-14T17:02:44.282Z,4.99
2023-02-14T17:05:11.665Z,5.22
2023-02-14T17:07:41.762Z,5.02
2023-02-14T17:10:11.841Z,5.37
2023-02-14T17:12:42.237Z,5.34
2023-02-14T17:15:13.420Z,5.30
2023-02-14T17:17:40.478Z,5.23
2023-02-14T17:20:08.516Z,4.99
2023-02-14T17:22:36.785Z,4.99
2023-02-14T17:25:05.495Z,5.02
2023-02-14T17:27:34.443Z,4.87
2023-02-14T17:30:01.718Z,4.62
2023-02-14T17:32:28.651Z,4.71
2023-02-14T17:34:56.482Z,4.73
2023-02-14T17:37:23.381Z,4.74
2023-02-14T17:39:50.070Z,4.71
2023-02-14T17:42:16.908Z,4.54
2023-02-14T17:44:44.119Z,4.58
2023-02-14T17:47:14.941Z,4.71
2023-02-14T17:49:42.592Z,4.50
2023-02-14T17:52:09.478Z,4.56
2023-02-14T17:54:39.492Z,4.29
2023-02-14T17:57:07.617Z,4.55
2023-02-14T17:59:35.056Z,4.13
2023-02-14T18:02:01.991Z,3.92
2023-02-14T18:04:30.574Z,3.86
2023-02-14T18:06:57.408Z,3.81
2023-02-14T18:09:25.927Z,4.26
2023-02-14T18:11:52.802Z,3.68
2023-02-14T18:14:19.503Z,3.69
2023-02-14T18:16:46.362Z,3.72
2023-02-14T18:19:16.112Z,3.94
2023-02-14T18:21:44.680Z,4.29
2023-02-14T18:24:12.197Z,3.91
2023-02-14T18:26:40.901Z,4.16
2023-02-14T18:29:08.182Z,4.08
2023-02-14T18:31:37.796Z,3.36
2023-02-14T18:34:05.297Z,4.01
2023-02-14T18:36:32.574Z,3.75
2023-02-14T18:38:59.462Z,3.97
2023-02-14T18:41:26.469Z,3.64
2023-02-14T18:43:53.559Z,3.51
2023-02-14T18:46:25.924Z,3.33
2023-02-14T18:48:53.228Z,3.36
2023-02-14T18:51:26.342Z,3.16
2023-02-14T18:53:55.033Z,3.19
2023-02-14T18:56:24.277Z,3.22
2023-02-14T18:58:54.118Z,3.29
2023-02-14T19:01:24.081Z,3.73
2023-02-14T19:03:53.004Z,3.37
2023-02-14T19:06:20.893Z,3.26
2023-02-14T19:08:48.466Z,3.15
2023-02-14T19:11:23.488Z,3.46
2023-02-14T19:13:53.533Z,3.42
2023-02-14T19:16:32.056Z,3.42
2023-02-14T19:18:59.995Z,3.23
2023-02-14T19:21:30.885Z,3.01
2023-02-14T19:23:58.222Z,3.33
2023-02-14T19:26:27.189Z,2.71
2023-02-14T19:29:00.049Z,2.76
2023-02-14T19:31:27.824Z,2.92
2023-02-14T19:33:54.976Z,3.08
2023-02-14T19:36:24.539Z,2.89
2023-02-14T19:38:52.942Z,3.29
2023-02-14T19:41:25.545Z,3.29
2023-02-14T19:43:52.633Z,3.40
2023-02-14T19:46:20.554Z,3.61
2023-02-14T19:48:47.810Z,3.54
2023-02-14T19:51:25.908Z,2.99
2023-02-14T19:53:53.534Z,3.12
2023-02-14T19:56:26.610Z,3.16
2023-02-14T19:58:54.076Z,2.97
2023-02-14T20:01:51.444Z,3.26
2023-02-14T20:04:21.717Z,3.14
2023-02-14T20:06:49.553Z,3.21
2023-02-14T20:09:24.335Z,2.77
2023-02-14T20:11:54.642Z,3.22
2023-02-14T20:14:26.662Z,3.15
2023-02-14T20:16:55.251Z,3.26
2023-02-14T20:19:24.346Z,3.07
2023-02-14T20:21:51.497Z,3.34
2023-02-14T20:24:26.716Z,3.37
2023-02-14T20:26:54.205Z,3.39
2023-02-14T20:29:21.980Z,3.37
2023-02-14T20:31:51.118Z,3.41
2023-02-14T20:34:19.558Z,2.92
2023-02-14T20:36:53.355Z,3.10
2023-02-14T20:39:22.620Z,2.80
2023-02-14T20:41:50.405Z,3.12
2023-02-14T20:44:21.994Z,3.01
2023-02-14T20:46:51.775Z,3.15
2023-02-14T20:49:19.885Z,2.85
2023-02-14T20:51:46.925Z,2.84
2023-02-14T20:54:13.810Z,2.22
2023-02-14T20:56:40.570Z,2.60
2023-02-14T20:59:08.778Z,2.84
2023-02-14T21:01:36.282Z,3.12
2023-02-14T21:04:03.405Z,3.15
2023-02-14T21:06:32.966Z,2.52
2023-02-14T21:09:00.534Z,2.92
2023-02-14T21:11:27.937Z,3.30
2023-02-14T21:13:59.906Z,2.51
2023-02-14T21:16:27.710Z,2.38
2023-02-14T21:18:59.648Z,2.87
2023-02-14T21:21:32.593Z,2.78
2023-02-14T21:24:01.334Z,3.23
2023-02-14T21:26:29.097Z,3.18
2023-02-14T21:28:55.967Z,2.93
2023-02-14T21:31:25.639Z,3.06
2023-02-14T21:33:55.052Z,2.84
2023-02-14T21:36:23.485Z,2.76
2023-02-14T21:38:51.057Z,2.61
2023-02-14T21:41:20.215Z,2.74
2023-02-14T21:43:49.122Z,2.72
2023-02-14T21:46:18.212Z,2.83
2023-02-14T21:49:04.170Z,2.84
2023-02-14T21:51:31.839Z,2.52
2023-02-14T21:54:02.433Z,2.70
2023-02-14T21:56:29.384Z,2.88
2023-02-14T21:58:56.521Z,2.78
2023-02-14T22:01:25.629Z,2.87
2023-02-14T22:03:52.824Z,2.58
2023-02-14T22:06:20.240Z,2.46
2023-02-14T22:08:47.660Z,2.65
2023-02-14T22:11:15.997Z,2.34
2023-02-14T22:13:43.196Z,2.12
2023-02-14T22:16:12.528Z,2.16
2023-02-14T22:18:39.821Z,2.27
2023-02-14T22:21:11.929Z,2.56
2023-02-14T22:23:39.097Z,2.82
2023-02-14T22:26:13.491Z,2.69
2023-02-14T22:28:45.243Z,2.37
2023-02-14T22:31:12.779Z,2.63
2023-02-14T22:33:40.119Z,2.73
2023-02-14T22:36:08.499Z,2.55
2023-02-14T22:38:35.895Z,2.47
2023-02-14T22:41:07.809Z,2.27
2023-02-14T22:43:35.553Z,2.55
2023-02-14T22:46:05.865Z,2.46
2023-02-14T22:48:35.720Z,2.51
2023-02-14T22:51:20.007Z,2.73
2023-02-14T22:53:47.242Z,2.41
2023-02-14T22:56:19.387Z,2.56
2023-02-14T22:58:46.931Z,2.46
2023-02-14T23:01:18.496Z,2.33
2023-02-14T23:03:45.912Z,2.36
2023-02-14T23:06:14.044Z,2.44
2023-02-14T23:08:45.147Z,2.51
2023-02-14T23:11:18.335Z,2.25
2023-02-14T23:14:04.330Z,2.36
2023-02-14T23:16:50.564Z,2.32
2023-02-14T23:19:41.143Z,2.30
2023-02-14T23:22:11.844Z,2.15
2023-02-14T23:24:39.403Z,2.08
2023-02-14T23:27:07.520Z,2.07
2023-02-14T23:29:34.403Z,2.07
2023-02-14T23:32:01.098Z,2.14
2023-02-14T23:34:30.673Z,1.90
2023-02-14T23:36:57.976Z,2.12
2023-02-14T23:39:24.960Z,2.27
2023-02-14T23:41:51.933Z,2.14
2023-02-14T23:44:22.871Z,2.29
2023-02-14T23:46:51.333Z,2.25
2023-02-14T23:49:18.658Z,2.47
2023-02-14T23:51:46.426Z,2.39
2023-02-14T23:54:13.945Z,2.39
2023-02-14T23:56:41.453Z,2.65
2023-02-14T23:59:08.715Z,2.46
